Time;durP1;ratioP1;P1;durP2;ratioP2;P2;SDS_P1;SDS_P2;PMS_P1;PMS_P2;Temp;Humidity;BMP_temperature;BMP_pressure;BME280_temperature;BME280_humidity;BME280_pressure;Samples;Min_cycle;Max_cycle;Signal;HPM_P1;HPM_P2
2021/03/02 00:00:17;;;;;;;10.88;5.75;;;4.00;99.90;;;;;;4909591;29;20100;-76
2021/03/02 00:02:43;;;;;;;31.38;6.40;;;4.10;99.90;;;;;;4917770;29;20116;-75
2021/03/02 00:05:11;;;;;;;39.17;5.68;;;4.10;99.90;;;;;;4918985;29;20028;-75
2021/03/02 00:07:37;;;;;;;20.38;6.50;;;4.10;99.90;;;;;;4928695;29;20028;-74
2021/03/02 00:10:05;;;;;;;11.68;5.82;;;4.10;99.90;;;;;;4929865;29;20028;-74
2021/03/02 00:12:31;;;;;;;11.82;6.20;;;4.00;99.90;;;;;;4929877;29;20032;-74
2021/03/02 00:14:57;;;;;;;48.22;6.07;;;4.00;99.90;;;;;;4919034;29;20025;-74
2021/03/02 00:17:35;;;;;;;13.75;6.85;;;4.00;99.90;;;;;;4910575;29;20041;-74
2021/03/02 00:20:03;;;;;;;23.90;6.32;;;3.90;99.90;;;;;;4910718;29;20032;-74
2021/03/02 00:22:34;;;;;;;18.63;6.22;;;3.90;99.90;;;;;;4910604;29;20057;-74
2021/03/02 00:25:04;;;;;;;16.77;6.57;;;3.90;99.90;;;;;;4910628;29;20032;-74
2021/03/02 00:27:30;;;;;;;17.17;4.93;;;3.90;99.90;;;;;;4910537;29;20025;-74
2021/03/02 00:29:57;;;;;;;20.58;5.93;;;3.90;99.90;;;;;;4910397;29;20029;-73
2021/03/02 00:32:23;;;;;;;12.27;4.88;;;3.80;99.90;;;;;;4910397;29;20098;-73
2021/03/02 00:34:49;;;;;;;17.08;5.75;;;3.80;99.90;;;;;;4909015;29;20035;-73
2021/03/02 00:37:16;;;;;;;10.25;5.43;;;3.80;99.90;;;;;;4910165;29;20041;-73
2021/03/02 00:39:42;;;;;;;21.73;6.97;;;3.70;99.90;;;;;;4910241;29;20110;-75
2021/03/02 00:42:08;;;;;;;14.05;5.45;;;3.70;99.90;;;;;;4910388;29;20060;-73
2021/03/02 00:44:34;;;;;;;15.43;6.50;;;3.70;99.90;;;;;;4917291;29;20036;-74
2021/03/02 00:47:01;;;;;;;17.80;5.70;;;3.70;99.90;;;;;;4926932;29;20028;-73
2021/03/02 00:49:26;;;;;;;29.95;6.03;;;3.70;99.90;;;;;;4929131;29;20067;-73
2021/03/02 00:51:52;;;;;;;10.57;5.13;;;3.70;99.90;;;;;;4928895;29;20039;-73
2021/03/02 00:54:18;;;;;;;14.15;5.18;;;3.70;99.90;;;;;;4923210;29;20032;-74
2021/03/02 00:56:43;;;;;;;39.55;6.40;;;3.70;99.90;;;;;;4926885;29;20044;-74
2021/03/02 00:59:10;;;;;;;13.23;5.85;;;3.70;99.90;;;;;;4926178;29;20028;-74
2021/03/02 01:01:35;;;;;;;16.90;5.18;;;3.70;99.90;;;;;;4928779;29;20406;-75
2021/03/02 01:04:01;;;;;;;21.25;7.03;;;3.70;99.90;;;;;;4928713;29;20044;-74
2021/03/02 01:06:27;;;;;;;13.95;5.75;;;3.70;99.90;;;;;;4925737;29;20031;-74
2021/03/02 01:08:52;;;;;;;15.70;6.13;;;3.70;99.90;;;;;;4926552;29;20048;-73
2021/03/02 01:11:18;;;;;;;17.65;7.07;;;3.70;99.90;;;;;;4926951;29;20063;-73
2021/03/02 01:13:43;;;;;;;40.28;5.80;;;3.70;99.90;;;;;;4928554;29;20028;-74
2021/03/02 01:16:09;;;;;;;41.17;7.05;;;3.60;99.90;;;;;;4927052;29;20032;-74
2021/03/02 01:18:35;;;;;;;12.48;5.70;;;3.50;99.90;;;;;;4928478;29;20035;-74
2021/03/02 01:21:00;;;;;;;13.18;5.15;;;3.50;99.90;;;;;;4928576;29;20036;-73
2021/03/02 01:23:26;;;;;;;9.23;5.30;;;3.50;99.90;;;;;;4928549;29;20040;-74
2021/03/02 01:25:51;;;;;;;16.45;6.97;;;3.50;99.90;;;;;;4928624;29;20095;-73
2021/03/02 01:28:17;;;;;;;20.55;5.75;;;3.50;99.90;;;;;;4928335;29;20135;-73
2021/03/02 01:30:43;;;;;;;11.82;5.88;;;3.50;99.90;;;;;;4928143;29;20032;-74
2021/03/02 01:33:09;;;;;;;13.48;5.22;;;3.50;99.90;;;;;;4928615;29;20035;-75
2021/03/02 01:35:34;;;;;;;27.23;7.10;;;3.50;99.90;;;;;;4928268;29;20064;-75
2021/03/02 01:38:00;;;;;;;29.60;5.70;;;3.40;99.90;;;;;;4926865;29;20509;-73
2021/03/02 01:40:26;;;;;;;17.55;6.90;;;3.30;99.90;;;;;;4928209;29;20032;-74
2021/03/02 01:42:51;;;;;;;21.15;6.63;;;3.20;99.90;;;;;;4928291;29;20079;-75
2021/03/02 01:45:19;;;;;;;11.68;5.38;;;3.20;99.90;;;;;;4928106;29;20094;-75
2021/03/02 01:47:51;;;;;;;15.18;6.20;;;3.10;99.90;;;;;;4928021;29;20047;-75
2021/03/02 01:50:18;;;;;;;10.68;6.32;;;3.10;99.90;;;;;;4928006;29;20024;-75
2021/03/02 01:52:44;;;;;;;10.02;5.80;;;3.20;99.90;;;;;;4928105;29;20035;-75
2021/03/02 01:55:10;;;;;;;11.02;5.43;;;3.20;99.90;;;;;;4928774;29;20076;-75
2021/03/02 01:57:36;;;;;;;12.88;6.28;;;3.20;99.90;;;;;;4928243;29;20036;-74
2021/03/02 02:00:24;;;;;;;15.57;7.47;;;3.20;99.90;;;;;;4931862;29;20401;-73
2021/03/02 02:03:09;;;;;;;15.30;4.80;;;3.20;99.90;;;;;;4936769;29;20048;-73
2021/03/02 02:05:41;;;;;;;13.80;6.00;;;3.20;99.90;;;;;;4932229;29;20047;-74
2021/03/02 02:08:08;;;;;;;14.23;4.70;;;3.30;99.90;;;;;;4931956;29;20072;-74
2021/03/02 02:10:39;;;;;;;14.30;5.60;;;3.30;99.90;;;;;;4930712;29;20123;-73
2021/03/02 02:13:09;;;;;;;10.35;5.40;;;3.20;99.90;;;;;;4931938;29;20033;-74
2021/03/02 02:15:37;;;;;;;10.63;5.35;;;3.30;99.90;;;;;;4932117;29;20477;-74
2021/03/02 02:18:05;;;;;;;9.18;5.40;;;3.20;99.90;;;;;;4931903;29;20047;-73
2021/03/02 02:21:07;;;;;;;11.55;4.40;;;3.20;99.90;;;;;;4930341;29;20028;-73
2021/03/02 02:23:47;;;;;;;19.67;5.75;;;3.20;99.90;;;;;;4931859;29;20035;-73
2021/03/02 02:26:37;;;;;;;14.25;5.22;;;3.10;99.90;;;;;;4931629;29;20036;-74
2021/03/02 02:29:03;;;;;;;13.02;5.07;;;3.10;99.90;;;;;;4931602;29;20040;-73
2021/03/02 02:31:31;;;;;;;8.70;4.60;;;3.10;99.90;;;;;;4931635;29;20084;-73
2021/03/02 02:33:57;;;;;;;13.32;5.30;;;3.10;99.90;;;;;;4931392;29;20024;-73
2021/03/02 02:36:24;;;;;;;6.97;4.25;;;3.00;99.90;;;;;;4929938;29;20111;-73
2021/03/02 02:38:57;;;;;;;8.20;4.18;;;3.00;99.90;;;;;;4931259;29;20032;-73
2021/03/02 02:41:26;;;;;;;13.52;4.88;;;3.00;99.90;;;;;;4931108;29;20031;-74
2021/03/02 02:43:53;;;;;;;28.20;5.38;;;3.00;99.90;;;;;;4929914;29;20043;-74
2021/03/02 02:46:20;;;;;;;14.40;5.32;;;3.00;99.90;;;;;;4928469;29;20366;-74
2021/03/02 02:48:48;;;;;;;17.33;6.15;;;3.00;99.90;;;;;;4929660;29;20058;-73
2021/03/02 02:51:15;;;;;;;11.15;4.65;;;3.00;99.90;;;;;;4926530;29;20127;-75
2021/03/02 02:53:42;;;;;;;21.92;6.80;;;3.00;99.90;;;;;;4912233;29;20028;-74
2021/03/02 02:56:11;;;;;;;7.63;4.43;;;2.90;99.90;;;;;;4912316;29;20096;-74
2021/03/02 02:58:44;;;;;;;11.82;4.88;;;2.90;99.90;;;;;;4912304;29;20059;-74
2021/03/02 03:01:12;;;;;;;11.40;5.25;;;2.90;99.90;;;;;;4910716;29;20028;-74
2021/03/02 03:03:43;;;;;;;9.75;4.95;;;2.80;99.90;;;;;;4909581;29;20080;-75
2021/03/02 03:06:12;;;;;;;14.98;5.50;;;2.80;99.90;;;;;;4927677;29;20032;-76
2021/03/02 03:08:50;;;;;;;9.93;4.43;;;2.80;99.90;;;;;;4928719;29;20039;-75
2021/03/02 03:11:18;;;;;;;8.70;4.05;;;2.80;99.90;;;;;;4929013;29;20062;-74
2021/03/02 03:13:46;;;;;;;9.63;4.68;;;2.80;99.90;;;;;;4930930;29;20087;-74
2021/03/02 03:16:13;;;;;;;7.38;4.00;;;2.70;99.90;;;;;;4929259;29;20036;-75
2021/03/02 03:18:49;;;;;;;19.30;5.18;;;2.70;99.90;;;;;;4929226;29;20119;-74
2021/03/02 03:21:16;;;;;;;8.40;4.55;;;2.70;99.90;;;;;;4930687;29;20362;-74
2021/03/02 03:23:43;;;;;;;9.68;4.80;;;2.70;99.90;;;;;;4930394;29;20540;-75
2021/03/02 03:26:14;;;;;;;12.82;5.20;;;2.70;99.90;;;;;;4930614;29;20560;-75
2021/03/02 03:28:40;;;;;;;9.30;4.45;;;2.70;99.90;;;;;;4930452;29;20056;-74
2021/03/02 03:31:10;;;;;;;14.88;4.57;;;2.60;99.90;;;;;;4930567;29;20120;-74
2021/03/02 03:33:37;;;;;;;9.70;4.30;;;2.60;99.90;;;;;;4929754;29;20024;-75
2021/03/02 03:36:03;;;;;;;6.65;3.78;;;2.60;99.90;;;;;;4929662;29;20035;-75
2021/03/02 03:38:29;;;;;;;11.40;4.10;;;2.50;99.90;;;;;;4929955;29;20072;-75
2021/03/02 03:40:55;;;;;;;24.23;4.25;;;2.50;99.90;;;;;;4930049;29;20028;-74
2021/03/02 03:43:20;;;;;;;7.68;4.30;;;2.50;99.90;;;;;;4924026;29;20048;-74
2021/03/02 03:45:46;;;;;;;10.25;4.30;;;2.40;99.90;;;;;;4911163;29;20029;-75
2021/03/02 03:48:12;;;;;;;12.00;4.72;;;2.40;99.90;;;;;;4911132;29;20076;-75
2021/03/02 03:50:38;;;;;;;10.25;3.83;;;2.40;99.90;;;;;;4909868;29;20032;-76
2021/03/02 03:53:07;;;;;;;9.90;4.35;;;2.40;99.90;;;;;;4911144;29;20044;-76
2021/03/02 03:55:41;;;;;;;9.20;4.20;;;2.30;99.90;;;;;;4909844;29;20036;-74
2021/03/02 03:58:09;;;;;;;7.70;4.00;;;2.30;99.90;;;;;;4913867;29;20119;-75
2021/03/02 04:00:39;;;;;;;8.35;4.45;;;2.30;99.90;;;;;;4925145;29;20462;-75
2021/03/02 04:03:07;;;;;;;9.75;4.13;;;2.40;99.90;;;;;;4927789;29;20088;-75
2021/03/02 04:05:35;;;;;;;14.15;5.10;;;2.30;99.90;;;;;;4929976;29;20048;-74
2021/03/02 04:08:01;;;;;;;36.03;5.80;;;2.20;99.90;;;;;;4929646;29;20028;-75
2021/03/02 04:10:27;;;;;;;8.77;4.35;;;2.20;99.90;;;;;;4924186;29;20148;-74
2021/03/02 04:12:54;;;;;;;13.57;4.72;;;2.20;99.90;;;;;;4929486;29;20053;-74
2021/03/02 04:15:19;;;;;;;10.35;4.43;;;2.20;99.90;;;;;;4929428;29;20028;-74
2021/03/02 04:17:53;;;;;;;12.38;4.45;;;2.20;99.90;;;;;;4929432;29;20036;-74
2021/03/02 04:20:20;;;;;;;20.10;5.40;;;2.20;99.90;;;;;;4928078;29;20429;-75
2021/03/02 04:22:45;;;;;;;11.30;4.85;;;2.20;99.90;;;;;;4929153;29;20032;-74
2021/03/02 04:25:12;;;;;;;11.27;5.18;;;2.20;99.90;;;;;;4929349;29;20032;-75
2021/03/02 04:27:38;;;;;;;8.18;4.55;;;2.20;99.90;;;;;;4928088;29;20032;-75
2021/03/02 04:30:06;;;;;;;10.95;4.43;;;2.20;99.90;;;;;;4929384;29;20024;-74
2021/03/02 04:32:32;;;;;;;12.52;5.35;;;2.20;99.90;;;;;;4928243;29;20035;-74
2021/03/02 04:34:58;;;;;;;24.52;4.43;;;2.10;99.90;;;;;;4929225;29;20453;-74
2021/03/02 04:37:24;;;;;;;29.42;5.20;;;2.10;99.90;;;;;;4929259;29;20040;-74
2021/03/02 04:39:49;;;;;;;8.43;4.22;;;2.00;99.90;;;;;;4929110;29;20072;-75
2021/03/02 04:42:15;;;;;;;26.38;5.53;;;2.10;99.90;;;;;;4929266;29;20033;-76
2021/03/02 04:44:41;;;;;;;8.90;3.53;;;2.10;99.90;;;;;;4929156;29;20036;-74
2021/03/02 04:47:07;;;;;;;11.48;4.50;;;2.10;99.90;;;;;;4929337;29;20028;-74
2021/03/02 04:49:32;;;;;;;9.45;4.22;;;2.00;99.90;;;;;;4928925;29;20039;-74
2021/03/02 04:51:58;;;;;;;11.00;4.38;;;2.00;99.90;;;;;;4928841;29;20039;-74
2021/03/02 04:54:25;;;;;;;10.55;4.90;;;2.00;99.90;;;;;;4927846;29;20034;-74
2021/03/02 04:56:51;;;;;;;9.95;4.70;;;2.00;99.90;;;;;;4928676;29;20047;-74
2021/03/02 04:59:16;;;;;;;12.52;4.35;;;2.00;99.90;;;;;;4928747;29;20032;-75
2021/03/02 05:01:42;;;;;;;9.70;5.32;;;1.90;99.90;;;;;;4927327;29;20043;-75
2021/03/02 05:04:08;;;;;;;5.20;3.58;;;1.90;99.90;;;;;;4927348;29;20059;-74
2021/03/02 05:06:34;;;;;;;8.70;4.55;;;1.80;99.90;;;;;;4927602;29;20040;-74
2021/03/02 05:08:59;;;;;;;26.20;4.22;;;1.80;99.90;;;;;;4928622;29;20028;-74
2021/03/02 05:11:25;;;;;;;16.63;5.03;;;1.80;99.90;;;;;;4928541;29;20044;-74
2021/03/02 05:13:50;;;;;;;7.45;4.20;;;1.80;99.90;;;;;;4928829;29;20079;-74
2021/03/02 05:16:16;;;;;;;9.70;3.83;;;1.80;99.90;;;;;;4927042;29;20473;-74
2021/03/02 05:18:42;;;;;;;6.65;3.70;;;1.80;99.90;;;;;;4928693;29;20032;-74
2021/03/02 05:21:08;;;;;;;9.98;4.78;;;1.80;99.90;;;;;;4928628;29;20084;-75
2021/03/02 05:23:34;;;;;;;6.45;3.53;;;1.70;99.90;;;;;;4928680;29;20024;-74
2021/03/02 05:26:00;;;;;;;7.40;4.03;;;1.80;99.90;;;;;;4928437;29;20036;-74
2021/03/02 05:28:25;;;;;;;10.40;5.07;;;1.80;99.90;;;;;;4928459;29;20036;-74
2021/03/02 05:30:52;;;;;;;8.05;4.13;;;1.80;99.90;;;;;;4928422;29;20024;-73
2021/03/02 05:33:18;;;;;;;11.77;5.00;;;1.80;99.90;;;;;;4927766;29;20024;-74
2021/03/02 05:35:43;;;;;;;45.05;5.85;;;1.70;99.90;;;;;;4928267;29;20028;-74
2021/03/02 05:38:09;;;;;;;8.02;4.18;;;1.70;99.90;;;;;;4928458;29;20044;-75
2021/03/02 05:40:38;;;;;;;10.85;4.78;;;1.60;99.90;;;;;;4928448;29;20028;-73
2021/03/02 05:43:04;;;;;;;12.63;4.47;;;1.70;99.90;;;;;;4928469;29;20047;-73
2021/03/02 05:45:30;;;;;;;14.95;5.07;;;1.70;99.90;;;;;;4928296;29;20043;-74
2021/03/02 05:47:58;;;;;;;9.23;5.10;;;1.70;99.90;;;;;;4928292;29;20118;-74
2021/03/02 05:50:23;;;;;;;7.72;4.60;;;1.70;99.90;;;;;;4927892;29;20092;-75
2021/03/02 05:52:49;;;;;;;10.75;5.53;;;1.70;99.90;;;;;;4926294;29;20028;-76
2021/03/02 05:55:15;;;;;;;26.35;5.70;;;1.70;99.90;;;;;;4926970;29;20024;-76
2021/03/02 05:57:42;;;;;;;13.65;6.72;;;1.70;99.90;;;;;;4927819;29;20059;-75
2021/03/02 06:00:09;;;;;;;6.57;3.17;;;1.70;99.90;;;;;;4928121;29;20036;-76
2021/03/02 06:02:35;;;;;;;12.25;6.18;;;1.70;99.90;;;;;;4926539;29;20048;-78
2021/03/02 06:05:02;;;;;;;11.90;4.70;;;1.60;99.90;;;;;;4926937;29;20032;-77
2021/03/02 06:07:27;;;;;;;8.50;4.80;;;1.60;99.90;;;;;;4927929;29;20436;-77
2021/03/02 06:09:53;;;;;;;9.13;5.20;;;1.60;99.90;;;;;;4926638;29;20024;-76
2021/03/02 06:12:18;;;;;;;10.60;4.95;;;1.60;99.90;;;;;;4928379;29;20028;-79
2021/03/02 06:14:45;;;;;;;12.93;5.65;;;1.60;99.90;;;;;;4926802;29;20401;-76
2021/03/02 06:17:11;;;;;;;15.23;5.32;;;1.50;99.90;;;;;;4926413;29;20032;-78
2021/03/02 06:19:47;;;;;;;10.23;4.70;;;1.50;99.90;;;;;;4926738;29;20092;-77
2021/03/02 06:22:33;;;;;;;10.60;4.45;;;1.50;99.90;;;;;;4924866;29;20063;-77
2021/03/02 06:25:00;;;;;;;10.25;5.05;;;1.50;99.90;;;;;;4922974;29;20119;-77
2021/03/02 06:27:25;;;;;;;9.38;4.15;;;1.50;99.90;;;;;;4920502;29;20037;-76
2021/03/02 06:30:15;;;;;;;9.43;4.93;;;1.50;99.90;;;;;;4915816;29;20085;-75
2021/03/02 06:32:54;;;;;;;18.58;5.25;;;1.50;99.90;;;;;;4910427;29;20048;-76
2021/03/02 06:35:38;;;;;;;11.25;4.90;;;1.50;99.90;;;;;;4917688;29;20036;-75
2021/03/02 06:38:05;;;;;;;11.77;5.57;;;1.50;99.90;;;;;;4907274;29;20064;-75
2021/03/02 06:40:42;;;;;;;13.15;4.95;;;1.50;99.90;;;;;;4909003;29;20032;-76
2021/03/02 06:43:27;;;;;;;9.77;4.65;;;1.50;99.90;;;;;;4923431;29;20043;-78
2021/03/02 06:45:52;;;;;;;14.10;5.07;;;1.50;99.90;;;;;;4926134;29;20031;-75
2021/03/02 06:48:18;;;;;;;10.88;4.78;;;1.50;99.90;;;;;;4910478;29;20056;-76
2021/03/02 06:50:43;;;;;;;9.57;4.43;;;1.50;99.90;;;;;;4911913;29;20068;-77
2021/03/02 06:53:11;;;;;;;11.60;4.32;;;1.50;99.90;;;;;;4910890;29;20505;-77
2021/03/02 06:55:38;;;;;;;8.73;4.15;;;1.50;99.90;;;;;;4909860;29;20047;-78
2021/03/02 06:58:23;;;;;;;11.10;4.93;;;1.50;99.90;;;;;;4910362;29;20074;-75
2021/03/02 07:00:54;;;;;;;12.05;4.85;;;1.60;99.90;;;;;;4911218;29;20434;-75
2021/03/02 07:03:30;;;;;;;12.63;4.78;;;1.60;99.90;;;;;;4913908;29;20076;-75
2021/03/02 07:06:01;;;;;;;13.38;5.55;;;1.60;99.90;;;;;;4919674;29;20027;-76
2021/03/02 07:08:26;;;;;;;11.85;5.45;;;1.70;99.90;;;;;;4929430;29;20055;-75
2021/03/02 07:10:53;;;;;;;12.43;5.13;;;1.70;99.90;;;;;;4929481;29;20072;-76
2021/03/02 07:13:21;;;;;;;15.30;5.43;;;1.70;99.90;;;;;;4929539;29;20395;-76
2021/03/02 07:15:47;;;;;;;7.20;4.25;;;1.80;99.90;;;;;;4926056;29;20024;-76
2021/03/02 07:18:15;;;;;;;11.93;5.28;;;1.70;99.90;;;;;;4916628;29;20134;-76
2021/03/02 07:20:48;;;;;;;12.02;5.80;;;1.70;99.90;;;;;;4930561;29;20504;-74
2021/03/02 07:23:25;;;;;;;16.42;5.85;;;1.70;99.90;;;;;;4930738;29;20032;-75
2021/03/02 07:25:51;;;;;;;14.02;5.65;;;1.80;99.90;;;;;;4930252;29;20035;-76
2021/03/02 07:28:20;;;;;;;10.68;4.57;;;1.70;99.90;;;;;;4930372;29;20035;-75
2021/03/02 07:30:47;;;;;;;9.75;5.15;;;1.80;99.90;;;;;;4930213;29;20032;-75
2021/03/02 07:33:14;;;;;;;34.17;5.78;;;1.90;99.90;;;;;;4930405;29;20036;-75
2021/03/02 07:35:39;;;;;;;12.13;4.65;;;1.90;99.90;;;;;;4925927;29;20040;-74
2021/03/02 07:38:31;;;;;;;11.90;5.68;;;2.00;99.90;;;;;;4911542;29;20040;-75
2021/03/02 07:40:57;;;;;;;13.07;5.07;;;2.10;99.90;;;;;;4910408;29;20495;-75
2021/03/02 07:43:28;;;;;;;13.27;5.93;;;2.20;99.90;;;;;;4911492;29;20033;-75
2021/03/02 07:45:55;;;;;;;9.15;4.72;;;2.30;99.90;;;;;;4923041;29;20539;-74
2021/03/02 07:48:39;;;;;;;10.73;4.65;;;2.40;99.90;;;;;;4930197;29;20028;-74
2021/03/02 07:51:12;;;;;;;9.77;4.93;;;2.40;99.90;;;;;;4930249;29;20040;-75
2021/03/02 07:53:38;;;;;;;9.52;5.05;;;2.50;99.90;;;;;;4930108;29;20142;-76
2021/03/02 07:56:14;;;;;;;19.40;6.50;;;2.60;99.90;;;;;;4909691;29;20057;-74
2021/03/02 07:58:39;;;;;;;16.40;6.10;;;2.70;99.90;;;;;;4909584;29;20052;-75
2021/03/02 08:01:19;;;;;;;9.25;4.88;;;2.70;99.90;;;;;;4911053;29;20032;-74
2021/03/02 08:03:44;;;;;;;23.02;5.95;;;2.90;99.90;;;;;;4920278;29;20064;-74
2021/03/02 08:06:30;;;;;;;16.27;5.47;;;3.10;99.90;;;;;;4910437;29;20080;-75
2021/03/02 08:08:55;;;;;;;11.73;4.82;;;3.20;99.90;;;;;;4908854;29;20123;-75
2021/03/02 08:11:48;;;;;;;20.67;7.10;;;3.40;99.90;;;;;;4910412;29;20036;-75
2021/03/02 08:14:16;;;;;;;14.85;6.53;;;3.60;99.90;;;;;;4911457;29;20041;-75
2021/03/02 08:17:04;;;;;;;22.58;7.22;;;3.80;99.90;;;;;;4908797;29;20410;-75
2021/03/02 08:19:37;;;;;;;12.88;6.10;;;4.00;99.90;;;;;;4912167;29;20031;-76
2021/03/02 08:22:28;;;;;;;15.82;6.88;;;4.20;99.90;;;;;;4929096;29;20040;-75
2021/03/02 08:24:59;;;;;;;10.65;5.90;;;4.40;99.90;;;;;;4949889;28;20047;-76
2021/03/02 08:27:45;;;;;;;18.90;8.23;;;4.60;99.90;;;;;;4946458;29;20038;-76
2021/03/02 08:30:12;;;;;;;17.10;6.53;;;4.80;99.90;;;;;;4947302;29;20429;-75
2021/03/02 08:32:40;;;;;;;14.60;6.63;;;5.00;99.90;;;;;;4947680;29;20027;-76
2021/03/02 08:35:18;;;;;;;17.27;7.18;;;5.30;99.90;;;;;;4946663;29;20083;-75
2021/03/02 08:37:55;;;;;;;14.85;6.10;;;5.30;99.90;;;;;;4947270;29;20044;-75
2021/03/02 08:40:31;;;;;;;13.70;6.65;;;5.50;99.90;;;;;;4948019;29;20496;-75
2021/03/02 08:43:05;;;;;;;18.52;7.05;;;5.60;99.90;;;;;;4948547;29;20039;-75
2021/03/02 08:45:40;;;;;;;18.75;6.80;;;5.90;99.90;;;;;;4948076;29;20028;-74
2021/03/02 08:48:20;;;;;;;16.27;6.88;;;6.00;99.90;;;;;;4947916;29;20115;-77
2021/03/02 08:50:48;;;;;;;15.25;6.65;;;6.20;99.90;;;;;;4947795;29;20040;-75
2021/03/02 08:53:33;;;;;;;15.20;6.85;;;6.30;99.90;;;;;;4947840;29;20031;-75
2021/03/02 08:56:04;;;;;;;13.75;6.95;;;6.60;99.90;;;;;;4946401;29;20031;-75
2021/03/02 08:58:35;;;;;;;16.25;6.80;;;6.70;99.90;;;;;;4947703;28;20036;-75
2021/03/02 09:01:04;;;;;;;14.20;6.63;;;6.90;99.90;;;;;;4932062;29;20028;-76
2021/03/02 09:03:30;;;;;;;19.20;8.27;;;7.00;99.90;;;;;;4922823;29;20081;-76
2021/03/02 09:06:09;;;;;;;16.02;6.43;;;7.10;99.90;;;;;;4925355;29;20060;-75
2021/03/02 09:09:00;;;;;;;14.85;6.40;;;7.20;99.90;;;;;;4924147;29;20115;-76
2021/03/02 09:11:31;;;;;;;17.58;7.78;;;7.30;99.90;;;;;;4923500;29;20041;-76
2021/03/02 09:14:03;;;;;;;11.02;5.88;;;7.40;99.90;;;;;;4923110;29;20040;-77
2021/03/02 09:16:31;;;;;;;20.58;7.32;;;7.50;99.90;;;;;;4919087;29;20101;-77
2021/03/02 09:19:05;;;;;;;13.18;6.55;;;7.70;99.90;;;;;;4925439;29;20079;-76
2021/03/02 09:21:32;;;;;;;16.52;7.43;;;7.90;99.90;;;;;;4925130;29;20036;-75
2021/03/02 09:23:58;;;;;;;13.93;6.13;;;8.00;99.90;;;;;;4924826;29;20412;-75
2021/03/02 09:26:25;;;;;;;12.20;6.55;;;8.10;99.90;;;;;;4926827;29;20388;-76
2021/03/02 09:28:59;;;;;;;16.70;6.93;;;8.30;99.90;;;;;;4922476;29;20084;-76
2021/03/02 09:31:35;;;;;;;17.45;7.25;;;8.30;99.90;;;;;;4908944;29;20055;-76
2021/03/02 09:34:01;;;;;;;13.10;6.43;;;8.30;99.90;;;;;;4908098;29;20036;-75
2021/03/02 09:36:31;;;;;;;15.18;6.85;;;8.40;99.90;;;;;;4907133;29;20051;-75
2021/03/02 09:38:59;;;;;;;20.23;7.40;;;8.50;99.90;;;;;;4908892;29;20040;-75
2021/03/02 09:41:37;;;;;;;17.90;7.93;;;8.60;99.90;;;;;;4907908;29;20079;-76
2021/03/02 09:44:22;;;;;;;11.65;6.40;;;8.80;99.90;;;;;;4909149;29;20032;-76
2021/03/02 09:46:53;;;;;;;16.25;7.30;;;9.10;99.90;;;;;;4926754;29;20032;-75
2021/03/02 09:49:40;;;;;;;16.10;7.30;;;9.20;99.90;;;;;;4927568;29;20029;-75
2021/03/02 09:52:20;;;;;;;14.98;7.28;;;9.40;99.90;;;;;;4922341;29;20474;-76
2021/03/02 09:55:05;;;;;;;14.30;7.10;;;9.50;99.90;;;;;;4916727;29;20029;-75
2021/03/02 09:57:31;;;;;;;16.55;7.63;;;9.70;99.90;;;;;;4921173;29;20104;-76
2021/03/02 09:59:57;;;;;;;22.02;7.88;;;9.90;99.90;;;;;;4924324;29;20048;-77
2021/03/02 10:02:22;;;;;;;17.38;8.23;;;10.10;99.90;;;;;;4916802;29;20048;-77
2021/03/02 10:04:48;;;;;;;11.82;5.80;;;10.30;99.90;;;;;;4917876;29;20040;-76
2021/03/02 10:07:14;;;;;;;16.58;6.95;;;10.60;99.90;;;;;;4920674;29;20084;-77
2021/03/02 10:09:47;;;;;;;18.65;7.45;;;10.90;99.90;;;;;;4923720;29;20031;-78
2021/03/02 10:12:14;;;;;;;16.70;7.10;;;11.20;99.90;;;;;;4908695;29;20032;-76
2021/03/02 10:14:43;;;;;;;14.48;6.78;;;11.30;99.90;;;;;;4918756;29;20496;-77
2021/03/02 10:17:09;;;;;;;21.50;7.82;;;11.50;99.90;;;;;;4926270;29;20040;-78
2021/03/02 10:19:36;;;;;;;15.48;7.25;;;11.60;99.90;;;;;;4927733;29;20127;-76
2021/03/02 10:22:10;;;;;;;16.05;7.07;;;11.80;99.90;;;;;;4929940;29;20032;-76
2021/03/02 10:24:38;;;;;;;13.63;6.00;;;11.80;99.90;;;;;;4930068;29;20024;-76
2021/03/02 10:27:16;;;;;;;12.25;5.82;;;11.90;99.90;;;;;;4926188;29;20040;-75
2021/03/02 10:29:43;;;;;;;13.82;6.03;;;12.10;99.90;;;;;;4919958;29;20052;-76
2021/03/02 10:32:10;;;;;;;14.10;6.00;;;12.30;99.90;;;;;;4910906;29;20363;-77
2021/03/02 10:34:37;;;;;;;19.02;7.72;;;12.40;99.90;;;;;;4910958;29;20458;-77
2021/03/02 10:37:05;;;;;;;26.65;7.00;;;12.70;99.90;;;;;;4910178;29;20103;-77
2021/03/02 10:39:31;;;;;;;12.40;6.22;;;13.00;99.90;;;;;;4912234;29;20047;-77
2021/03/02 10:41:58;;;;;;;9.85;5.22;;;13.30;99.90;;;;;;4910499;29;20177;-76
2021/03/02 10:44:24;;;;;;;15.18;5.28;;;13.40;99.90;;;;;;4911258;29;20036;-77
2021/03/02 10:46:50;;;;;;;14.30;7.35;;;13.70;99.90;;;;;;4910546;29;20029;-78
2021/03/02 10:49:16;;;;;;;18.88;7.20;;;14.00;99.90;;;;;;4916571;29;20371;-77
2021/03/02 10:51:42;;;;;;;14.52;6.05;;;14.20;99.90;;;;;;4916090;29;20032;-78
2021/03/02 10:54:09;;;;;;;12.73;6.25;;;14.50;99.90;;;;;;4912074;29;20032;-76
2021/03/02 10:56:35;;;;;;;12.50;6.07;;;14.60;99.90;;;;;;4910784;29;20517;-77
2021/03/02 10:59:00;;;;;;;12.98;7.13;;;14.90;99.90;;;;;;4911964;29;20032;-77
2021/03/02 11:01:26;;;;;;;11.35;6.22;;;15.10;99.90;;;;;;4923977;29;20033;-78
2021/03/02 11:03:52;;;;;;;10.30;5.55;;;15.10;99.90;;;;;;4926198;29;20060;-77
2021/03/02 11:06:22;;;;;;;10.18;5.60;;;15.40;99.90;;;;;;4926209;29;20033;-76
2021/03/02 11:08:48;;;;;;;10.10;5.55;;;15.60;99.90;;;;;;4927434;29;20549;-77
2021/03/02 11:11:15;;;;;;;14.40;6.10;;;15.90;99.90;;;;;;4929254;29;20039;-77
2021/03/02 11:13:42;;;;;;;16.40;6.13;;;16.00;99.90;;;;;;4929458;29;20048;-77
2021/03/02 11:16:09;;;;;;;12.98;5.90;;;16.20;99.90;;;;;;4928987;29;20040;-77
2021/03/02 11:18:34;;;;;;;14.88;6.32;;;16.40;99.90;;;;;;4928283;29;20047;-77
2021/03/02 11:21:00;;;;;;;11.75;5.65;;;16.40;99.90;;;;;;4930764;29;20064;-77
2021/03/02 11:23:26;;;;;;;23.02;5.80;;;16.50;99.90;;;;;;4929177;29;20047;-77
2021/03/02 11:25:51;;;;;;;10.05;5.47;;;16.50;99.90;;;;;;4930333;29;20051;-76
2021/03/02 11:28:17;;;;;;;10.88;4.88;;;16.80;99.90;;;;;;4930082;29;20028;-77
2021/03/02 11:30:43;;;;;;;14.50;6.25;;;17.00;99.90;;;;;;4920054;29;20032;-77
2021/03/02 11:33:10;;;;;;;8.55;4.82;;;17.30;99.90;;;;;;4922178;29;20453;-78
2021/03/02 11:35:38;;;;;;;10.98;5.53;;;17.40;99.90;;;;;;4909600;29;20029;-77
2021/03/02 11:38:04;;;;;;;11.35;5.15;;;17.50;99.90;;;;;;4911417;29;20045;-77
2021/03/02 11:40:30;;;;;;;14.48;5.20;;;17.70;99.90;;;;;;4919064;29;20033;-77
2021/03/02 11:42:57;;;;;;;14.55;6.13;;;17.90;99.90;;;;;;4925002;29;20053;-76
2021/03/02 11:45:25;;;;;;;13.15;4.85;;;18.10;99.90;;;;;;4925587;29;20079;-77
2021/03/02 11:47:51;;;;;;;11.98;5.38;;;18.10;99.90;;;;;;4929110;29;20024;-77
2021/03/02 11:50:18;;;;;;;11.27;5.60;;;18.30;99.90;;;;;;4922406;29;20041;-77
2021/03/02 11:52:48;;;;;;;8.63;4.80;;;18.30;99.90;;;;;;4912737;29;20080;-77
2021/03/02 11:55:14;;;;;;;8.27;4.93;;;18.60;99.90;;;;;;4911103;29;20036;-78
2021/03/02 11:57:41;;;;;;;9.77;4.78;;;18.80;99.90;;;;;;4910521;29;20051;-78
2021/03/02 12:00:11;;;;;;;8.43;4.85;;;19.10;99.90;;;;;;4910802;29;20024;-78
2021/03/02 12:02:36;;;;;;;8.35;4.35;;;19.20;99.90;;;;;;4910580;29;20138;-77
2021/03/02 12:05:03;;;;;;;8.45;3.97;;;19.30;99.90;;;;;;4909435;29;20040;-77
2021/03/02 12:07:29;;;;;;;10.35;4.22;;;19.40;99.90;;;;;;4910847;29;20041;-77
2021/03/02 12:09:54;;;;;;;13.38;5.13;;;19.50;99.90;;;;;;4916666;29;20058;-77
2021/03/02 12:12:20;;;;;;;7.18;4.00;;;19.50;99.90;;;;;;4918171;29;20092;-77
2021/03/02 12:14:46;;;;;;;10.52;4.63;;;19.70;99.90;;;;;;4928402;29;20039;-78
2021/03/02 12:17:12;;;;;;;9.15;5.13;;;19.90;99.90;;;;;;4929819;29;20040;-77
2021/03/02 12:19:38;;;;;;;7.95;4.32;;;20.10;99.00;;;;;;4929296;29;20068;-77
2021/03/02 12:22:04;;;;;;;10.60;4.85;;;20.00;96.50;;;;;;4929222;29;20024;-77
2021/03/02 12:24:29;;;;;;;6.57;4.00;;;19.90;99.30;;;;;;4914671;29;20036;-77
2021/03/02 12:26:55;;;;;;;9.25;4.32;;;20.00;99.10;;;;;;4925122;29;20044;-77
2021/03/02 12:29:21;;;;;;;12.73;5.22;;;20.20;99.10;;;;;;4913221;29;20549;-76
2021/03/02 12:31:47;;;;;;;8.52;4.22;;;20.40;96.00;;;;;;4917030;29;20032;-77
2021/03/02 12:34:13;;;;;;;10.48;4.28;;;20.60;97.60;;;;;;4927406;29;20051;-79
2021/03/02 12:36:39;;;;;;;8.65;4.75;;;20.70;97.30;;;;;;4909083;29;20041;-78
2021/03/02 12:39:07;;;;;;;7.88;4.43;;;20.80;96.10;;;;;;4910270;29;20033;-80
2021/03/02 12:41:33;;;;;;;7.22;4.22;;;20.90;94.30;;;;;;4908848;29;20033;-78
2021/03/02 12:43:58;;;;;;;7.82;4.13;;;20.90;94.90;;;;;;4909521;29;20028;-77
2021/03/02 12:46:24;;;;;;;12.00;4.35;;;20.90;93.50;;;;;;4908699;29;20493;-77
2021/03/02 12:48:50;;;;;;;8.60;4.35;;;20.80;95.30;;;;;;4908148;29;20036;-77
2021/03/02 12:51:18;;;;;;;10.90;4.63;;;20.70;93.40;;;;;;4915797;29;20033;-78
2021/03/02 12:53:45;;;;;;;9.40;4.07;;;20.70;93.20;;;;;;4919540;29;20088;-77
2021/03/02 12:56:16;;;;;;;7.57;4.22;;;20.60;94.00;;;;;;4917476;29;20035;-78